Mattapoisett, MA (02739)

12:34 PM EDT on March 26, 2017 (GMT -0400)
Head of the Harbor Weather Station | | Change Station

Elev 0 ft 41.66 °N, 70.82 °W | Updated 22 seconds ago

Overcast
Overcast
42.3 °F
Feels Like 37 °F
N
8.0
Wind Variable Wind from NNE

Today
High -- | Low -- °F
--% Chance of Precip.
Yesterday
High -- | Low -- °F
Precip. -- in
Pressure 30.51 in
Visibility 10.0 miles
Clouds Overcast 8000 ft
Windchill 37 °F
Dew Point 28 °F
Humidity 58%
Rainfall 0.00 in
Snow Depth Not available.
6:35 AM 7:02 PM
Waning Crescent, 3% visible
METAR KEWB 261553Z 05008KT 10SM OVC080 07/M02 A3050 RMK AO2 SLP329 T00721022
Pressure 30.51 in
Visibility 10.0 miles
Clouds Overcast 8000 ft
Windchill 37 °F
Dew Point 28 °F
Humidity 58%
Rainfall 0.00 in
Snow Depth Not available.
6:35 AM 7:02 PM
Waning Crescent, 3% visible
METAR KEWB 261553Z 05008KT 10SM OVC080 07/M02 A3050 RMK AO2 SLP329 T00721022

Get Severe Weather Alerts

Thanks for signing up!

Be on the lookout for a verification email in your inbox.

You'll start receiving the daily forecast at 8 AM.

×

10-Day Weather Forecast

Almanac

Astronomy

Mar. 26, 2017 Rise Set
Actual Time
Civil Twilight
Nautical Twilight
Astronomical Twilight
Moon
Length of Visible Light
Length of Day
Tomorrow will be .
, % of the Moon is Illuminated

Today's Extremes

State Highs State Lows

Community

WunderPhotos

Upload Photos

1,962,540 photos uploaded!

WunderBlog® & News

Nearby

Air Quality

  Air Quality AQ Index Pollutant
Not available.

Snow Depth

Station Depth Elevation

Earthquake Activity

City Distance Mag. Time & Date
Minimum magnitude displayed is 2.5.

Earthquake Activity

City Distance Mag. Time & Date
Minimum magnitude displayed is 2.5.

Coastal Water Temperatures

Place Temperature

Stations

Nearby Weather Stations

Station Location Temp. Windchill Dew Point Humidity Wind Precip. Elev Updated Type
                   

Watches & Warnings

There are currently no watches in effect.